createdAt,value
2023-04-16T00:00:58.787Z,5.23
2023-04-16T00:03:25.634Z,5.17
2023-04-16T00:05:55.647Z,5.13
2023-04-16T00:08:24.407Z,4.94
2023-04-16T00:10:51.808Z,5.01
2023-04-16T00:13:18.438Z,5.06
2023-04-16T00:15:44.996Z,5.06
2023-04-16T00:18:11.639Z,4.99
2023-04-16T00:20:38.163Z,4.91
2023-04-16T00:23:04.663Z,4.80
2023-04-16T00:25:31.239Z,4.75
2023-04-16T00:27:57.672Z,4.61
2023-04-16T00:30:24.299Z,4.77
2023-04-16T00:32:50.783Z,4.78
2023-04-16T00:35:17.349Z,4.77
2023-04-16T00:37:44.712Z,4.72
2023-04-16T00:40:11.748Z,4.86
2023-04-16T00:42:38.291Z,4.95
2023-04-16T00:45:05.598Z,4.97
2023-04-16T00:47:32.156Z,4.88
2023-04-16T00:49:58.695Z,4.99
2023-04-16T00:52:26.004Z,4.94
2023-04-16T00:54:53.722Z,4.93
2023-04-16T00:57:21.125Z,5.05
2023-04-16T00:59:47.685Z,4.84
2023-04-16T01:02:14.366Z,4.94
2023-04-16T01:04:41.285Z,4.98
2023-04-16T01:07:07.824Z,4.91
2023-04-16T01:09:34.288Z,4.89
2023-04-16T01:12:03.424Z,4.97
2023-04-16T01:14:31.717Z,5.14
2023-04-16T01:16:58.183Z,5.10
2023-04-16T01:19:24.693Z,5.08
2023-04-16T01:21:51.526Z,5.05
2023-04-16T01:24:18.059Z,5.14
2023-04-16T01:26:44.489Z,5.03
2023-04-16T01:29:11.405Z,4.88
2023-04-16T01:31:38.022Z,4.89
2023-04-16T01:34:09.680Z,4.84
2023-04-16T01:36:36.299Z,4.93
2023-04-16T01:39:03.239Z,5.08
2023-04-16T01:41:31.109Z,5.10
2023-04-16T01:43:57.684Z,5.02
2023-04-16T01:46:27.303Z,4.99
2023-04-16T01:48:54.818Z,5.06
2023-04-16T01:51:21.666Z,4.97
2023-04-16T01:53:48.128Z,5.12
2023-04-16T01:56:14.586Z,5.11
2023-04-16T01:58:42.785Z,5.12
2023-04-16T02:01:09.740Z,5.19
2023-04-16T02:03:37.326Z,5.18
2023-04-16T02:06:04.251Z,5.25
2023-04-16T02:08:30.781Z,5.34
2023-04-16T02:10:57.533Z,5.37
2023-04-16T02:13:26.119Z,5.29
2023-04-16T02:15:52.753Z,5.31
2023-04-16T02:18:34.255Z,5.14
2023-04-16T02:21:01.192Z,5.08
2023-04-16T02:23:27.877Z,5.19
2023-04-16T02:25:56.315Z,5.15
2023-04-16T02:28:23.226Z,5.07
2023-04-16T02:30:50.588Z,5.12
2023-04-16T02:33:18.674Z,5.06
2023-04-16T02:35:54.677Z,4.94
2023-04-16T02:38:21.483Z,4.94
2023-04-16T02:40:48.102Z,4.90
2023-04-16T02:43:16.141Z,4.92
2023-04-16T02:45:42.751Z,5.03
2023-04-16T02:48:09.677Z,5.16
2023-04-16T02:50:36.170Z,5.08
2023-04-16T02:53:03.442Z,5.07
2023-04-16T02:55:29.954Z,5.31
2023-04-16T02:57:56.570Z,5.15
2023-04-16T03:00:23.111Z,5.23
2023-04-16T03:02:49.698Z,5.21
2023-04-16T03:05:16.337Z,5.22
2023-04-16T03:07:42.778Z,5.17
2023-04-16T03:10:10.052Z,5.05
2023-04-16T03:12:36.568Z,5.02
2023-04-16T03:15:06.586Z,5.25
2023-04-16T03:17:33.144Z,5.40
2023-04-16T03:19:59.741Z,5.57
2023-04-16T03:22:26.224Z,5.50
2023-04-16T03:24:52.686Z,5.48
2023-04-16T03:27:19.190Z,5.51
2023-04-16T03:29:46.037Z,5.41
2023-04-16T03:32:12.817Z,5.27
2023-04-16T03:34:39.386Z,5.28
2023-04-16T03:37:06.237Z,5.29
2023-04-16T03:39:34.483Z,5.31
2023-04-16T03:42:02.173Z,5.14
2023-04-16T03:44:28.748Z,4.99
2023-04-16T03:46:55.333Z,5.04
2023-04-16T03:49:22.736Z,4.67
2023-04-16T03:51:49.316Z,4.85
2023-04-16T03:54:16.036Z,5.03
2023-04-16T03:56:47.365Z,5.07
2023-04-16T03:59:13.903Z,5.09
2023-04-16T04:01:40.637Z,4.92
2023-04-16T04:04:08.144Z,4.89
2023-04-16T04:06:36.685Z,4.97
2023-04-16T04:09:03.317Z,5.02
2023-04-16T04:11:29.857Z,4.94
2023-04-16T04:13:56.886Z,4.80
2023-04-16T04:16:23.599Z,4.65
2023-04-16T04:18:50.395Z,4.74
2023-04-16T04:21:16.949Z,4.87
2023-04-16T04:23:43.751Z,4.92
2023-04-16T04:26:11.354Z,4.90
2023-04-16T04:28:39.168Z,4.75
2023-04-16T04:31:05.917Z,4.82
2023-04-16T04:33:32.410Z,4.97
2023-04-16T04:35:59.080Z,4.96
2023-04-16T04:38:26.800Z,5.00
2023-04-16T04:40:54.153Z,5.31
2023-04-16T04:43:22.459Z,5.39
2023-04-16T04:45:50.101Z,5.31
2023-04-16T04:48:17.500Z,5.20
2023-04-16T04:50:45.101Z,5.21
2023-04-16T04:53:12.082Z,5.27
2023-04-16T04:55:38.889Z,5.35
2023-04-16T04:58:06.220Z,5.40
2023-04-16T05:00:34.404Z,5.29
2023-04-16T05:03:05.330Z,5.28
2023-04-16T05:05:31.942Z,5.44
2023-04-16T05:07:58.493Z,5.44
2023-04-16T05:10:24.989Z,5.48
2023-04-16T05:12:51.505Z,5.42
2023-04-16T05:15:18.027Z,5.32
2023-04-16T05:17:44.524Z,5.30
2023-04-16T05:20:11.125Z,5.61
2023-04-16T05:22:37.594Z,5.73
2023-04-16T05:25:04.184Z,5.69
2023-04-16T05:27:30.684Z,5.70
2023-04-16T05:29:57.168Z,5.85
2023-04-16T05:32:25.757Z,5.73
2023-04-16T05:34:52.228Z,5.77
2023-04-16T05:37:18.682Z,5.91
2023-04-16T05:39:45.288Z,5.96
2023-04-16T05:42:11.794Z,6.09
2023-04-16T05:44:38.254Z,6.21
2023-04-16T05:47:04.676Z,6.55
2023-04-16T05:49:31.129Z,6.71
2023-04-16T05:51:57.583Z,6.47
2023-04-16T05:54:24.288Z,6.58
2023-04-16T05:56:50.854Z,6.67
2023-04-16T05:59:17.429Z,6.85
2023-04-16T06:01:43.943Z,6.91
2023-04-16T06:04:10.747Z,7.11
2023-04-16T06:06:37.517Z,7.89
2023-04-16T06:09:04.174Z,8.19
2023-04-16T06:11:30.707Z,7.90
2023-04-16T06:13:57.307Z,8.02
2023-04-16T06:16:23.833Z,8.07
2023-04-16T06:18:50.492Z,8.36
2023-04-16T06:21:17.049Z,8.29
2023-04-16T06:23:43.456Z,8.28
2023-04-16T06:26:10.948Z,8.37
2023-04-16T06:28:37.353Z,8.64
2023-04-16T06:31:04.373Z,8.69
2023-04-16T06:33:30.933Z,8.67
2023-04-16T06:35:57.400Z,8.47
2023-04-16T06:38:23.934Z,8.27
2023-04-16T06:40:50.660Z,8.15
2023-04-16T06:43:17.919Z,8.50
2023-04-16T06:45:44.895Z,8.71
2023-04-16T06:48:11.381Z,8.77
2023-04-16T06:50:37.860Z,9.16
2023-04-16T06:53:04.312Z,9.30
2023-04-16T06:55:30.985Z,9.09
2023-04-16T06:57:57.404Z,9.03
2023-04-16T07:00:23.932Z,9.44
2023-04-16T07:02:50.612Z,9.53
2023-04-16T07:05:17.284Z,9.78
2023-04-16T07:07:43.803Z,9.54
2023-04-16T07:10:10.436Z,9.11
2023-04-16T07:12:36.983Z,9.13
2023-04-16T07:15:03.567Z,9.31
2023-04-16T07:17:30.126Z,9.35
2023-04-16T07:19:56.565Z,9.35
2023-04-16T07:22:23.296Z,9.64
2023-04-16T07:24:49.745Z,9.44
2023-04-16T07:27:17.081Z,9.52
2023-04-16T07:29:45.608Z,10.31
2023-04-16T07:32:14.063Z,10.14
2023-04-16T07:34:41.797Z,10.10
2023-04-16T07:37:09.025Z,9.74
2023-04-16T07:39:35.550Z,10.10
2023-04-16T07:42:02.178Z,10.37
2023-04-16T07:44:28.640Z,10.27
2023-04-16T07:46:55.238Z,10.11
2023-04-16T07:49:21.761Z,9.92
2023-04-16T07:51:48.272Z,9.99
2023-04-16T07:54:14.731Z,9.68
2023-04-16T07:56:41.189Z,10.02
2023-04-16T07:59:21.035Z,9.95
2023-04-16T08:01:49.399Z,9.62
2023-04-16T08:04:20.250Z,9.91
2023-04-16T08:06:46.786Z,10.25
2023-04-16T08:09:13.261Z,10.87
2023-04-16T08:11:39.808Z,10.09
2023-04-16T08:14:06.296Z,10.12
2023-04-16T08:16:32.782Z,11.03
2023-04-16T08:19:01.105Z,10.47
2023-04-16T08:21:28.085Z,10.85
2023-04-16T08:23:54.522Z,11.50
2023-04-16T08:26:21.194Z,11.15
2023-04-16T08:28:47.664Z,11.66
2023-04-16T08:31:14.215Z,11.68
2023-04-16T08:33:40.964Z,12.11
2023-04-16T08:36:07.476Z,11.79
2023-04-16T08:38:33.909Z,12.43
2023-04-16T08:41:02.808Z,12.70
2023-04-16T08:43:33.303Z,12.06
2023-04-16T08:46:00.830Z,12.51
2023-04-16T08:48:29.258Z,12.52
2023-04-16T08:50:56.377Z,12.32
2023-04-16T08:53:26.224Z,12.11
2023-04-16T08:55:53.588Z,11.55
2023-04-16T08:58:21.790Z,11.58
2023-04-16T09:00:48.789Z,11.67
2023-04-16T09:03:15.603Z,11.41
2023-04-16T09:05:42.643Z,11.52
2023-04-16T09:08:09.209Z,11.63
2023-04-16T09:10:35.679Z,11.85
2023-04-16T09:13:02.225Z,12.27
2023-04-16T09:15:29.515Z,11.88
2023-04-16T09:17:57.562Z,12.03
2023-04-16T09:20:24.590Z,11.77
2023-04-16T09:22:51.295Z,12.12
2023-04-16T09:25:20.244Z,12.21
2023-04-16T09:27:49.313Z,11.80
2023-04-16T09:30:21.878Z,12.11
2023-04-16T09:32:49.283Z,11.71
2023-04-16T09:35:17.147Z,11.91
2023-04-16T09:37:43.680Z,11.50
2023-04-16T09:40:10.303Z,11.50
2023-04-16T09:42:37.267Z,12.07
2023-04-16T09:45:05.769Z,13.27
2023-04-16T09:47:43.122Z,12.71
2023-04-16T09:50:12.431Z,13.06
2023-04-16T09:52:39.488Z,13.00
2023-04-16T09:55:06.303Z,13.53
2023-04-16T09:57:32.858Z,13.88
2023-04-16T10:00:03.057Z,14.15
2023-04-16T10:02:31.689Z,14.19
2023-04-16T10:05:00.727Z,13.09
2023-04-16T10:07:33.604Z,13.29
2023-04-16T10:10:00.164Z,14.11
2023-04-16T10:12:28.770Z,14.53
2023-04-16T10:14:55.279Z,14.35
2023-04-16T10:17:21.972Z,15.08
2023-04-16T10:19:48.740Z,14.63
2023-04-16T10:22:15.237Z,14.68
2023-04-16T10:24:41.944Z,14.18
2023-04-16T10:27:08.407Z,14.65
2023-04-16T10:29:35.170Z,14.16
2023-04-16T10:32:02.097Z,14.22
2023-04-16T10:34:29.131Z,14.06
2023-04-16T10:36:56.028Z,14.08
2023-04-16T10:39:23.633Z,13.19
2023-04-16T10:41:50.805Z,13.52
2023-04-16T10:44:18.628Z,14.69
2023-04-16T10:46:49.412Z,14.71
2023-04-16T10:49:19.951Z,14.84
2023-04-16T10:51:59.615Z,14.24
2023-04-16T10:54:27.448Z,15.85
2023-04-16T10:56:56.058Z,15.97
2023-04-16T10:59:23.303Z,16.47
2023-04-16T11:01:54.462Z,17.51
2023-04-16T11:04:23.986Z,17.69
2023-04-16T11:07:19.510Z,18.11
2023-04-16T11:09:56.595Z,17.01
2023-04-16T11:12:27.701Z,16.95
2023-04-16T11:15:14.445Z,16.97
2023-04-16T11:17:43.040Z,16.55
2023-04-16T11:20:19.150Z,16.01
2023-04-16T11:22:47.163Z,16.04
2023-04-16T11:25:19.030Z,15.77
2023-04-16T11:27:45.482Z,16.01
2023-04-16T11:30:12.145Z,16.36
2023-04-16T11:32:38.975Z,16.72
2023-04-16T11:35:13.664Z,17.03
2023-04-16T11:37:40.336Z,16.80
2023-04-16T11:40:08.165Z,16.66
2023-04-16T11:42:37.279Z,17.47
2023-04-16T11:45:04.792Z,18.08
2023-04-16T11:47:32.037Z,18.83
2023-04-16T11:49:58.919Z,19.73
2023-04-16T11:52:33.263Z,17.49
2023-04-16T11:54:59.868Z,15.92
2023-04-16T11:57:27.467Z,16.56
2023-04-16T12:00:02.611Z,18.36
2023-04-16T12:02:54.851Z,18.23
2023-04-16T12:05:30.621Z,18.57
2023-04-16T12:07:58.109Z,17.35
2023-04-16T12:10:24.863Z,17.80
2023-04-16T12:12:53.184Z,16.93
2023-04-16T12:15:20.332Z,17.03
2023-04-16T12:17:47.831Z,17.84
2023-04-16T12:20:15.434Z,17.87
2023-04-16T12:22:46.970Z,16.40
2023-04-16T12:25:15.090Z,15.86
2023-04-16T12:27:43.139Z,15.53
2023-04-16T12:30:09.768Z,15.44
2023-04-16T12:32:36.466Z,15.12
2023-04-16T12:35:03.100Z,15.88
2023-04-16T12:37:29.508Z,15.84
2023-04-16T12:39:56.048Z,14.92
2023-04-16T12:42:22.556Z,15.01
2023-04-16T12:44:49.064Z,15.52
2023-04-16T12:47:15.648Z,15.20
2023-04-16T12:49:42.348Z,14.95
2023-04-16T12:52:09.013Z,13.91
2023-04-16T12:54:35.667Z,14.28
2023-04-16T12:57:02.116Z,14.53
2023-04-16T12:59:28.588Z,14.19
2023-04-16T13:01:55.292Z,14.73
2023-04-16T13:04:25.648Z,15.22
2023-04-16T13:06:52.541Z,14.99
2023-04-16T13:09:20.225Z,15.20
2023-04-16T13:11:46.785Z,14.95
2023-04-16T13:14:13.305Z,15.28
2023-04-16T13:16:39.748Z,14.40
2023-04-16T13:19:06.278Z,14.92
2023-04-16T13:21:33.424Z,15.67
2023-04-16T13:23:59.950Z,15.36
2023-04-16T13:26:26.736Z,15.07
2023-04-16T13:28:53.177Z,14.62
2023-04-16T13:31:22.017Z,14.84
2023-04-16T13:33:48.673Z,14.50
2023-04-16T13:36:15.297Z,14.31
2023-04-16T13:38:42.270Z,14.19
2023-04-16T13:41:08.806Z,14.01
2023-04-16T13:43:37.123Z,14.32
2023-04-16T13:46:03.670Z,14.04
2023-04-16T13:48:30.237Z,13.71
2023-04-16T13:50:56.698Z,13.51
2023-04-16T13:53:23.188Z,13.35
2023-04-16T13:55:49.628Z,13.53
2023-04-16T13:58:16.308Z,13.04
2023-04-16T14:00:43.121Z,13.02
2023-04-16T14:03:09.706Z,12.98
2023-04-16T14:05:36.193Z,12.87
2023-04-16T14:08:02.624Z,12.88
2023-04-16T14:10:31.099Z,13.00
2023-04-16T14:12:57.747Z,12.94
2023-04-16T14:15:26.696Z,12.90
2023-04-16T14:17:53.806Z,13.19
2023-04-16T14:20:20.731Z,13.31
2023-04-16T14:22:47.325Z,13.38
2023-04-16T14:25:13.820Z,13.64
2023-04-16T14:27:41.249Z,13.46
2023-04-16T14:30:07.978Z,13.81
2023-04-16T14:32:34.516Z,14.02
2023-04-16T14:35:01.098Z,14.23
2023-04-16T14:37:27.655Z,14.54
2023-04-16T14:39:54.194Z,14.77
2023-04-16T14:42:20.844Z,15.33
2023-04-16T14:44:47.306Z,14.96
2023-04-16T14:47:13.965Z,14.53
2023-04-16T14:49:40.623Z,14.57
2023-04-16T14:52:07.342Z,14.77
2023-04-16T14:54:34.034Z,14.73
2023-04-16T14:57:01.896Z,15.13
2023-04-16T14:59:28.732Z,14.98
2023-04-16T15:01:55.535Z,15.07
2023-04-16T15:04:22.192Z,14.87
2023-04-16T15:06:49.881Z,14.57
2023-04-16T15:09:16.412Z,14.67
2023-04-16T15:11:42.842Z,14.61
2023-04-16T15:14:09.549Z,14.82
2023-04-16T15:16:36.383Z,14.36
2023-04-16T15:19:05.169Z,14.03
2023-04-16T15:21:31.809Z,14.02
2023-04-16T15:23:58.294Z,14.08
2023-04-16T15:26:24.811Z,13.59
2023-04-16T15:28:51.244Z,13.49
2023-04-16T15:31:17.749Z,13.52
2023-04-16T15:33:44.258Z,13.87
2023-04-16T15:36:11.314Z,13.50
2023-04-16T15:38:37.789Z,13.17
2023-04-16T15:41:04.232Z,13.33
2023-04-16T15:43:30.777Z,13.45
2023-04-16T15:45:57.372Z,13.14
2023-04-16T15:48:24.403Z,13.20
2023-04-16T15:50:51.451Z,12.50
2023-04-16T15:53:18.047Z,12.67
2023-04-16T15:55:44.566Z,12.24
2023-04-16T15:58:11.196Z,12.24
2023-04-16T16:00:37.650Z,12.24
2023-04-16T16:03:04.403Z,12.42
2023-04-16T16:05:31.364Z,12.22
2023-04-16T16:07:58.171Z,12.05
2023-04-16T16:10:24.731Z,11.93
2023-04-16T16:12:51.237Z,11.99
2023-04-16T16:15:17.702Z,12.33
2023-04-16T16:17:44.213Z,12.17
2023-04-16T16:20:10.843Z,12.33
2023-04-16T16:22:38.227Z,11.96
2023-04-16T16:25:05.625Z,12.20
2023-04-16T16:27:32.112Z,12.02
2023-04-16T16:30:00.789Z,11.99
2023-04-16T16:32:27.486Z,11.92
2023-04-16T16:34:54.110Z,11.95
2023-04-16T16:37:20.648Z,12.00
2023-04-16T16:39:47.128Z,11.97
2023-04-16T16:42:16.618Z,11.95
2023-04-16T16:44:43.082Z,12.09
2023-04-16T16:47:09.634Z,11.90
2023-04-16T16:49:36.341Z,12.04
2023-04-16T16:52:02.823Z,12.16
2023-04-16T16:54:29.308Z,11.97
2023-04-16T16:56:56.684Z,12.07
2023-04-16T16:59:23.142Z,12.16
2023-04-16T17:01:49.707Z,12.10
2023-04-16T17:04:19.355Z,12.09
2023-04-16T17:06:46.806Z,12.06
2023-04-16T17:09:13.690Z,11.98
2023-04-16T17:11:40.394Z,11.98
2023-04-16T17:14:06.929Z,12.04
2023-04-16T17:16:33.495Z,11.98
2023-04-16T17:19:01.246Z,11.73
2023-04-16T17:21:27.933Z,11.70
2023-04-16T17:23:54.599Z,11.74
2023-04-16T17:26:21.204Z,11.76
2023-04-16T17:28:47.679Z,11.79
2023-04-16T17:31:15.070Z,11.73
2023-04-16T17:33:41.549Z,11.70
2023-04-16T17:36:08.037Z,11.42
2023-04-16T17:38:34.621Z,11.11
2023-04-16T17:41:01.281Z,11.12
2023-04-16T17:43:28.452Z,10.91
2023-04-16T17:45:54.935Z,10.83
2023-04-16T17:48:21.388Z,10.89
2023-04-16T17:50:48.554Z,10.94
2023-04-16T17:53:15.621Z,10.90
2023-04-16T17:55:49.816Z,10.75
2023-04-16T17:58:16.315Z,10.67
2023-04-16T18:00:43.245Z,10.50
2023-04-16T18:03:11.491Z,10.45
2023-04-16T18:05:38.158Z,10.47
2023-04-16T18:08:04.792Z,10.54
2023-04-16T18:10:32.751Z,10.52
2023-04-16T18:12:59.223Z,10.44
2023-04-16T18:15:25.782Z,10.35
2023-04-16T18:17:52.293Z,10.31
2023-04-16T18:20:19.681Z,10.26
2023-04-16T18:22:46.196Z,10.19
2023-04-16T18:25:12.697Z,9.97
2023-04-16T18:27:39.366Z,10.07
2023-04-16T18:30:06.329Z,10.15
2023-04-16T18:32:33.366Z,10.31
2023-04-16T18:35:00.317Z,10.00
2023-04-16T18:37:27.102Z,10.01
2023-04-16T18:39:54.020Z,9.90
2023-04-16T18:42:21.277Z,9.81
2023-04-16T18:44:54.183Z,9.72
2023-04-16T18:47:20.856Z,9.79
2023-04-16T18:49:47.361Z,9.70
2023-04-16T18:52:13.852Z,9.61
2023-04-16T18:54:40.950Z,9.64
2023-04-16T18:57:07.417Z,9.79
2023-04-16T18:59:33.921Z,9.79
2023-04-16T19:02:00.465Z,9.79
2023-04-16T19:04:26.959Z,9.86
2023-04-16T19:06:53.513Z,9.97
2023-04-16T19:09:20.273Z,9.84
2023-04-16T19:11:47.808Z,9.85
2023-04-16T19:14:14.239Z,9.74
2023-04-16T19:16:40.847Z,9.76
2023-04-16T19:19:07.424Z,9.84
2023-04-16T19:21:34.182Z,9.76
2023-04-16T19:24:01.018Z,9.81
2023-04-16T19:26:27.974Z,9.94
2023-04-16T19:28:54.463Z,9.79
2023-04-16T19:31:21.339Z,9.73
2023-04-16T19:33:47.800Z,9.72
2023-04-16T19:36:14.268Z,9.76
2023-04-16T19:38:40.758Z,9.86
2023-04-16T19:41:07.222Z,9.88
2023-04-16T19:43:34.161Z,9.85
2023-04-16T19:46:00.734Z,10.06
2023-04-16T19:48:27.282Z,10.16
2023-04-16T19:50:53.907Z,10.04
2023-04-16T19:53:21.404Z,9.97
2023-04-16T19:55:47.844Z,10.05
2023-04-16T19:58:14.664Z,10.09
2023-04-16T20:00:41.994Z,10.15
2023-04-16T20:03:09.045Z,10.12
2023-04-16T20:05:35.636Z,10.19
2023-04-16T20:08:02.199Z,10.32
2023-04-16T20:10:29.383Z,10.13
2023-04-16T20:12:55.921Z,10.15
2023-04-16T20:15:22.447Z,10.26
2023-04-16T20:17:49.069Z,10.27
2023-04-16T20:20:16.404Z,10.34
2023-04-16T20:22:43.656Z,10.32
2023-04-16T20:25:10.532Z,10.34
2023-04-16T20:27:37.154Z,10.36
2023-04-16T20:30:05.379Z,10.54
2023-04-16T20:32:31.892Z,10.24
2023-04-16T20:34:58.376Z,10.34
2023-04-16T20:37:24.864Z,10.36
2023-04-16T20:39:54.123Z,10.51
2023-04-16T20:42:22.142Z,10.45
2023-04-16T20:44:56.376Z,10.42
2023-04-16T20:47:23.344Z,10.38
2023-04-16T20:49:49.876Z,10.63
2023-04-16T20:52:16.739Z,10.55
2023-04-16T20:54:43.494Z,10.59
2023-04-16T20:57:09.986Z,10.59
2023-04-16T20:59:36.942Z,10.55
2023-04-16T21:02:03.540Z,10.64
2023-04-16T21:04:30.427Z,10.84
2023-04-16T21:06:57.228Z,10.47
2023-04-16T21:09:23.757Z,10.57
2023-04-16T21:11:50.275Z,10.97
2023-04-16T21:14:16.743Z,10.78
2023-04-16T21:16:43.189Z,10.71
2023-04-16T21:19:09.958Z,10.64
2023-04-16T21:21:38.214Z,10.66
2023-04-16T21:24:04.790Z,10.77
2023-04-16T21:26:31.248Z,10.79
2023-04-16T21:28:57.827Z,10.87
2023-04-16T21:31:24.316Z,10.80
2023-04-16T21:33:50.911Z,10.75
2023-04-16T21:36:17.369Z,10.83
2023-04-16T21:38:43.831Z,10.77
2023-04-16T21:41:10.403Z,10.39
2023-04-16T21:43:36.882Z,10.49
2023-04-16T21:46:03.391Z,10.65
2023-04-16T21:48:29.924Z,10.92
2023-04-16T21:50:58.073Z,10.76
2023-04-16T21:53:25.490Z,10.77
2023-04-16T21:55:52.254Z,10.56
2023-04-16T21:58:18.783Z,10.76
2023-04-16T22:00:45.489Z,10.75
2023-04-16T22:03:12.441Z,10.81
2023-04-16T22:05:39.193Z,10.78
2023-04-16T22:08:23.232Z,10.91
2023-04-16T22:10:51.197Z,10.93
2023-04-16T22:13:17.827Z,10.64
2023-04-16T22:15:44.381Z,10.82
2023-04-16T22:18:11.457Z,10.78
2023-04-16T22:20:38.942Z,10.67
2023-04-16T22:23:06.178Z,10.67
2023-04-16T22:25:32.969Z,10.62
2023-04-16T22:28:00.756Z,10.78
2023-04-16T22:30:27.341Z,10.86
2023-04-16T22:32:53.972Z,10.67
2023-04-16T22:35:20.521Z,10.74
2023-04-16T22:37:47.000Z,10.71
2023-04-16T22:40:13.502Z,10.54
2023-04-16T22:42:40.001Z,10.50
2023-04-16T22:45:07.340Z,10.07
2023-04-16T22:47:33.846Z,10.42
2023-04-16T22:50:00.511Z,10.41
2023-04-16T22:52:27.474Z,10.44
2023-04-16T22:54:54.007Z,10.37
2023-04-16T22:57:25.674Z,10.51
2023-04-16T22:59:53.092Z,10.56
2023-04-16T23:02:20.181Z,10.60
2023-04-16T23:04:47.954Z,10.33
2023-04-16T23:07:15.107Z,10.25
2023-04-16T23:09:41.634Z,10.77
2023-04-16T23:12:08.235Z,10.21
2023-04-16T23:14:35.181Z,10.31
2023-04-16T23:17:01.918Z,10.37
2023-04-16T23:19:28.801Z,10.47
2023-04-16T23:21:55.266Z,10.47
2023-04-16T23:24:21.772Z,10.35
2023-04-16T23:26:48.313Z,10.41
2023-04-16T23:29:14.735Z,10.56
2023-04-16T23:31:41.211Z,10.65
2023-04-16T23:34:07.772Z,10.37
2023-04-16T23:36:34.253Z,10.44
2023-04-16T23:39:00.750Z,10.34
2023-04-16T23:41:27.205Z,10.37
2023-04-16T23:43:53.842Z,10.42
2023-04-16T23:46:20.482Z,10.27
2023-04-16T23:48:46.955Z,10.45
2023-04-16T23:51:13.465Z,10.54
2023-04-16T23:53:40.830Z,10.46
2023-04-16T23:56:07.852Z,10.48
2023-04-16T23:58:34.309Z,10.17
